Time;durP1;ratioP1;P1;durP2;ratioP2;P2;SDS_P1;SDS_P2;PMS_P1;PMS_P2;Temp;Humidity;BMP_temperature;BMP_pressure;BME280_temperature;BME280_humidity;BME280_pressure;Samples;Min_cycle;Max_cycle;Signal;HPM_P1;HPM_P2
2023/01/04 00:02:14;;;;;;;4.73;1.03;;;;;;;;;;5006535;28;20276;-67
2023/01/04 00:04:39;;;;;;;3.63;1.13;;;;;;;;;;5001726;28;20921;-67
2023/01/04 00:07:04;;;;;;;6.13;1.60;;;;;;;;;;5004898;28;20276;-67
2023/01/04 00:09:29;;;;;;;8.95;0.98;;;;;;;;;;5005345;28;20300;-67
2023/01/04 00:11:54;;;;;;;3.05;0.88;;;;;;;;;;5003671;28;20092;-67
2023/01/04 00:14:20;;;;;;;1.55;0.65;;;;;;;;;;5003962;28;20022;-67
2023/01/04 00:16:45;;;;;;;11.60;1.10;;;;;;;;;;5009585;28;20088;-67
2023/01/04 00:19:10;;;;;;;1.67;0.50;;;;;;;;;;5009998;28;20734;-67
2023/01/04 00:21:36;;;;;;;3.17;0.85;;;;;;;;;;4987438;28;20033;-67
2023/01/04 00:24:01;;;;;;;2.70;0.90;;;;;;;;;;5006255;28;20033;-67
2023/01/04 00:26:30;;;;;;;4.75;0.80;;;;;;;;;;5009081;28;20291;-67
2023/01/04 00:28:57;;;;;;;9.30;1.38;;;;;;;;;;5008041;28;20403;-67
2023/01/04 00:31:23;;;;;;;6.03;1.33;;;;;;;;;;5009034;28;20025;-67
2023/01/04 00:33:49;;;;;;;0.63;0.50;;;;;;;;;;5006987;28;20014;-67
2023/01/04 00:36:14;;;;;;;4.43;0.52;;;;;;;;;;4998134;28;20413;-67
2023/01/04 00:38:39;;;;;;;6.60;1.58;;;;;;;;;;5003667;28;20036;-67
2023/01/04 00:41:05;;;;;;;6.90;1.38;;;;;;;;;;5007588;28;20418;-67
2023/01/04 00:43:31;;;;;;;6.53;1.25;;;;;;;;;;5005112;28;20046;-67
2023/01/04 00:45:56;;;;;;;1.02;0.50;;;;;;;;;;5006146;28;20030;-67
2023/01/04 00:48:21;;;;;;;1.27;0.57;;;;;;;;;;5004442;28;20517;-68
2023/01/04 00:50:47;;;;;;;4.95;1.27;;;;;;;;;;5009142;28;20029;-67
2023/01/04 00:53:13;;;;;;;1.15;0.73;;;;;;;;;;5008427;28;20026;-67
2023/01/04 00:55:38;;;;;;;4.00;1.25;;;;;;;;;;4999807;28;20097;-67
2023/01/04 00:58:04;;;;;;;9.40;0.90;;;;;;;;;;5018909;23;20141;-70
2023/01/04 01:00:29;;;;;;;0.82;0.47;;;;;;;;;;5006237;28;20034;-70
2023/01/04 01:02:54;;;;;;;1.90;0.67;;;;;;;;;;5007442;28;20814;-70
2023/01/04 01:05:19;;;;;;;5.50;1.03;;;;;;;;;;5003883;28;20293;-70
2023/01/04 01:07:44;;;;;;;3.47;0.80;;;;;;;;;;4999821;28;20348;-70
2023/01/04 01:10:10;;;;;;;4.80;1.65;;;;;;;;;;4998681;28;20022;-70
2023/01/04 01:12:35;;;;;;;5.13;0.65;;;;;;;;;;5001475;28;20061;-70
2023/01/04 01:15:00;;;;;;;4.03;1.03;;;;;;;;;;4998205;28;20389;-70
2023/01/04 01:17:25;;;;;;;4.30;0.80;;;;;;;;;;5000095;28;20323;-70
2023/01/04 01:19:50;;;;;;;3.63;0.87;;;;;;;;;;5001706;28;20372;-70
2023/01/04 01:22:15;;;;;;;4.47;0.73;;;;;;;;;;5002977;28;20733;-70
2023/01/04 01:24:41;;;;;;;5.18;1.30;;;;;;;;;;4998601;28;20339;-70
2023/01/04 01:27:06;;;;;;;10.87;1.33;;;;;;;;;;5001989;28;20108;-71
2023/01/04 01:29:31;;;;;;;9.85;0.88;;;;;;;;;;5005692;28;20284;-71
2023/01/04 01:31:56;;;;;;;6.47;1.00;;;;;;;;;;5004869;28;20026;-71
2023/01/04 01:34:21;;;;;;;1.07;0.40;;;;;;;;;;5002627;28;20029;-71
2023/01/04 01:36:47;;;;;;;3.95;0.73;;;;;;;;;;5004755;28;20269;-71
2023/01/04 01:39:12;;;;;;;8.00;1.13;;;;;;;;;;5005444;28;20021;-71
2023/01/04 01:41:37;;;;;;;8.75;2.05;;;;;;;;;;5006000;28;20394;-71
2023/01/04 01:44:25;;;;;;;2.95;1.08;;;;;;;;;;5003040;28;20092;-71
2023/01/04 01:46:52;;;;;;;4.07;1.33;;;;;;;;;;5002423;28;20060;-71
2023/01/04 01:49:20;;;;;;;2.85;1.20;;;;;;;;;;5004261;28;20060;-71
2023/01/04 01:51:45;;;;;;;2.35;1.17;;;;;;;;;;4989853;28;20104;-71
2023/01/04 01:54:16;;;;;;;1.80;0.73;;;;;;;;;;4994443;28;20120;-71
2023/01/04 01:56:43;;;;;;;9.00;0.88;;;;;;;;;;5010082;28;20030;-71
2023/01/04 01:59:09;;;;;;;8.30;0.80;;;;;;;;;;5005337;28;20119;-71
2023/01/04 02:01:35;;;;;;;3.28;0.95;;;;;;;;;;5006153;28;20037;-71
2023/01/04 02:04:01;;;;;;;2.20;0.90;;;;;;;;;;5003098;28;20262;-71
2023/01/04 02:06:30;;;;;;;2.92;0.82;;;;;;;;;;5002282;28;20033;-71
2023/01/04 02:08:55;;;;;;;10.77;1.73;;;;;;;;;;5000557;28;20334;-71
2023/01/04 02:11:20;;;;;;;6.35;1.40;;;;;;;;;;5003043;28;20089;-71
2023/01/04 02:16:48;;;;;;;6.50;0.82;;;;;;;;;;5002131;28;20280;-71
2023/01/04 02:19:14;;;;;;;7.85;1.10;;;;;;;;;;5001506;28;20022;-72
2023/01/04 02:21:45;;;;;;;6.78;1.80;;;;;;;;;;4985773;28;20121;-72
2023/01/04 02:24:25;;;;;;;7.22;1.00;;;;;;;;;;5001141;28;20288;-72
2023/01/04 02:26:59;;;;;;;8.93;1.23;;;;;;;;;;5007277;28;20030;-72
2023/01/04 02:30:02;;;;;;;8.55;1.40;;;;;;;;;;5000339;28;20054;-72
2023/01/04 02:32:32;;;;;;;2.05;0.98;;;;;;;;;;4916147;29;20027;-72
2023/01/04 02:34:57;;;;;;;6.33;2.07;;;;;;;;;;4910086;29;20127;-72
2023/01/04 02:37:35;;;;;;;5.38;1.50;;;;;;;;;;4957692;28;20368;-72
2023/01/04 02:40:00;;;;;;;4.78;0.95;;;;;;;;;;5009755;28;20292;-72
2023/01/04 02:45:21;;;;;;;4.68;1.27;;;;;;;;;;5004731;28;20336;-72
2023/01/04 02:50:32;;;;;;;0.47;0.40;;;;;;;;;;5005086;28;20386;-72
2023/01/04 02:53:05;;;;;;;1.65;0.63;;;;;;;;;;5010867;28;20014;-71
2023/01/04 02:55:53;;;;;;;2.08;0.85;;;;;;;;;;5004555;28;20033;-72
2023/01/04 02:58:22;;;;;;;4.82;1.42;;;;;;;;;;4990495;28;20034;-72
2023/01/04 03:06:47;;;;;;;3.35;2.20;;;;;;;;;;5000123;28;20254;-72
2023/01/04 03:09:20;;;;;;;4.25;1.48;;;;;;;;;;4997077;28;20025;-72
2023/01/04 03:14:38;;;;;;;4.35;1.45;;;;;;;;;;5000421;28;20644;-72
2023/01/04 03:17:06;;;;;;;3.22;0.65;;;;;;;;;;5002802;28;20112;-72
2023/01/04 03:19:53;;;;;;;3.70;0.85;;;;;;;;;;4987084;28;20029;-72
2023/01/04 03:36:08;;;;;;;0.95;0.73;;;;;;;;;;5009074;28;20792;-72
2023/01/04 03:50:32;;;;;;;3.25;0.80;;;;;;;;;;5008068;28;20073;-72
2023/01/04 03:52:58;;;;;;;4.53;0.55;;;;;;;;;;5005263;28;20092;-72
2023/01/04 03:55:24;;;;;;;0.88;0.30;;;;;;;;;;5002756;28;20016;-72
2023/01/04 03:57:50;;;;;;;2.05;0.45;;;;;;;;;;4981077;28;20053;-72
2023/01/04 04:00:17;;;;;;;5.57;0.50;;;;;;;;;;5007466;28;20488;-72
2023/01/04 04:02:43;;;;;;;2.63;0.45;;;;;;;;;;5006150;28;20096;-72
2023/01/04 04:10:41;;;;;;;0.68;0.30;;;;;;;;;;5007001;28;20024;-72
2023/01/04 04:13:06;;;;;;;1.30;0.60;;;;;;;;;;5006106;28;20022;-72
2023/01/04 04:15:31;;;;;;;0.10;0.10;;;;;;;;;;5005113;28;20289;-72
2023/01/04 04:17:57;;;;;;;1.30;0.20;;;;;;;;;;5006655;28;20319;-72
2023/01/04 04:20:22;;;;;;;0.30;0.30;;;;;;;;;;5008665;28;20348;-72
2023/01/04 04:22:47;;;;;;;1.33;0.70;;;;;;;;;;5006949;28;20280;-72
2023/01/04 04:25:12;;;;;;;0.77;0.77;;;;;;;;;;5000804;28;20285;-72
2023/01/04 04:27:37;;;;;;;0.20;0.20;;;;;;;;;;5004996;28;20771;-72
2023/01/04 04:30:03;;;;;;;2.23;0.23;;;;;;;;;;5007558;28;20049;-72
2023/01/04 04:32:28;;;;;;;0.30;0.20;;;;;;;;;;5006387;28;20268;-72
2023/01/04 04:34:53;;;;;;;3.30;0.35;;;;;;;;;;5005079;28;20022;-72
2023/01/04 04:37:19;;;;;;;0.07;0.07;;;;;;;;;;5005827;28;20061;-72
2023/01/04 04:39:44;;;;;;;1.45;0.22;;;;;;;;;;4998712;28;20773;-72
2023/01/04 04:42:09;;;;;;;0.10;0.10;;;;;;;;;;5003187;28;20493;-72
2023/01/04 04:44:34;;;;;;;0.20;0.20;;;;;;;;;;4999664;28;20293;-72
2023/01/04 04:47:00;;;;;;;0.15;0.15;;;;;;;;;;5003326;28;20274;-72
2023/01/04 04:49:25;;;;;;;0.10;0.10;;;;;;;;;;4999109;28;20057;-72
2023/01/04 04:51:50;;;;;;;0.13;0.13;;;;;;;;;;4998868;28;20268;-72
2023/01/04 04:54:17;;;;;;;2.80;0.40;;;;;;;;;;5004320;28;20344;-72
2023/01/04 04:56:42;;;;;;;1.48;0.28;;;;;;;;;;5006124;28;20299;-72
2023/01/04 04:59:07;;;;;;;0.43;0.10;;;;;;;;;;5006569;28;20470;-72
2023/01/04 05:01:32;;;;;;;0.10;0.10;;;;;;;;;;5005480;28;20281;-72
2023/01/04 05:03:58;;;;;;;0.10;0.10;;;;;;;;;;5006176;28;20033;-72
2023/01/04 05:06:23;;;;;;;1.98;0.22;;;;;;;;;;5004773;28;20045;-72
2023/01/04 05:08:48;;;;;;;0.55;0.20;;;;;;;;;;5005031;28;20386;-72
2023/01/04 05:11:14;;;;;;;0.10;0.10;;;;;;;;;;5004182;28;20379;-72
2023/01/04 05:13:39;;;;;;;0.35;0.20;;;;;;;;;;5008023;28;20075;-72
2023/01/04 05:16:05;;;;;;;0.50;0.30;;;;;;;;;;5001451;28;20057;-72
2023/01/04 05:18:30;;;;;;;0.20;0.10;;;;;;;;;;5003377;28;20026;-72
2023/01/04 05:20:55;;;;;;;0.23;0.10;;;;;;;;;;4999577;28;20603;-72
2023/01/04 05:23:21;;;;;;;0.00;0.00;;;;;;;;;;5004565;28;20280;-72
2023/01/04 05:25:54;;;;;;;0.05;0.05;;;;;;;;;;5008055;28;20014;-72
2023/01/04 05:28:19;;;;;;;1.17;0.20;;;;;;;;;;5006299;28;20087;-72
2023/01/04 05:30:50;;;;;;;0.20;0.10;;;;;;;;;;5004334;28;20533;-72
2023/01/04 05:33:15;;;;;;;;;;;;;;;;;;5006640;28;20029;-72
2023/01/04 05:35:40;;;;;;;0.20;0.10;;;;;;;;;;5006907;28;19924;-72
2023/01/04 05:38:05;;;;;;;0.23;0.20;;;;;;;;;;5004183;28;20022;-72
2023/01/04 05:40:31;;;;;;;0.43;0.20;;;;;;;;;;5002876;28;20277;-72
2023/01/04 05:42:56;;;;;;;0.30;0.13;;;;;;;;;;4999607;28;20030;-72
2023/01/04 05:45:21;;;;;;;0.98;0.28;;;;;;;;;;5005899;28;20339;-72
2023/01/04 05:47:50;;;;;;;0.30;0.10;;;;;;;;;;5003054;28;20013;-72
2023/01/04 05:50:16;;;;;;;0.50;0.30;;;;;;;;;;4988061;28;20030;-72
2023/01/04 05:52:41;;;;;;;0.55;0.38;;;;;;;;;;5006753;28;20088;-72
2023/01/04 05:55:06;;;;;;;2.37;0.20;;;;;;;;;;5008255;28;20033;-72
2023/01/04 05:57:31;;;;;;;0.30;0.17;;;;;;;;;;5004782;28;20311;-72
2023/01/04 05:59:57;;;;;;;0.98;0.10;;;;;;;;;;5005858;28;20033;-72
2023/01/04 06:02:23;;;;;;;3.03;0.10;;;;;;;;;;5004344;28;20030;-72
2023/01/04 06:04:48;;;;;;;0.10;0.10;;;;;;;;;;5002210;28;20276;-72
2023/01/04 06:07:13;;;;;;;0.30;0.15;;;;;;;;;;5003411;28;20467;-72
2023/01/04 06:09:39;;;;;;;0.00;0.00;;;;;;;;;;5007940;28;20022;-72
2023/01/04 06:12:04;;;;;;;0.30;0.10;;;;;;;;;;4999692;28;20112;-72
2023/01/04 06:14:29;;;;;;;0.10;0.10;;;;;;;;;;5002062;28;20490;-72
2023/01/04 06:16:55;;;;;;;0.10;0.10;;;;;;;;;;4985306;28;20033;-72
2023/01/04 06:19:20;;;;;;;0.65;0.38;;;;;;;;;;4999781;28;20029;-72
2023/01/04 06:21:45;;;;;;;0.73;0.20;;;;;;;;;;4987913;28;20026;-72
2023/01/04 06:24:11;;;;;;;0.10;0.10;;;;;;;;;;5004476;28;20050;-72
2023/01/04 06:26:36;;;;;;;0.10;0.10;;;;;;;;;;5001153;28;20303;-72
2023/01/04 06:29:01;;;;;;;0.32;0.10;;;;;;;;;;5002554;28;20013;-72
2023/01/04 06:31:26;;;;;;;0.50;0.20;;;;;;;;;;5002743;28;20033;-72
2023/01/04 06:33:51;;;;;;;0.22;0.10;;;;;;;;;;5002741;28;20342;-72
2023/01/04 06:36:17;;;;;;;1.13;0.15;;;;;;;;;;4993288;28;20061;-72
2023/01/04 06:38:42;;;;;;;0.20;0.20;;;;;;;;;;4997645;28;20036;-72
2023/01/04 06:41:07;;;;;;;0.03;0.03;;;;;;;;;;4999416;28;21632;-72
2023/01/04 06:43:32;;;;;;;1.00;0.20;;;;;;;;;;5004209;28;20331;-72
2023/01/04 06:46:00;;;;;;;3.45;0.22;;;;;;;;;;5000976;28;20393;-72
2023/01/04 06:48:25;;;;;;;0.30;0.20;;;;;;;;;;5004146;28;20541;-72
2023/01/04 06:50:50;;;;;;;0.13;0.13;;;;;;;;;;5001282;28;20041;-72
2023/01/04 06:53:15;;;;;;;0.03;0.03;;;;;;;;;;5006224;28;20181;-72
2023/01/04 06:55:42;;;;;;;0.25;0.17;;;;;;;;;;5005409;28;20279;-72
2023/01/04 06:58:07;;;;;;;0.10;0.10;;;;;;;;;;5019367;23;20125;-87
2023/01/04 07:00:33;;;;;;;0.20;0.10;;;;;;;;;;4998705;28;20048;-93
2023/01/04 07:02:58;;;;;;;0.47;0.22;;;;;;;;;;4999842;28;20018;-88
2023/01/04 07:05:46;;;;;;;0.30;0.20;;;;;;;;;;4995067;28;20030;-91
2023/01/04 07:08:30;;;;;;;0.30;0.17;;;;;;;;;;4987121;28;20050;-90
2023/01/04 07:10:55;;;;;;;0.10;0.10;;;;;;;;;;4994219;28;20026;-89
2023/01/04 07:13:23;;;;;;;0.10;0.10;;;;;;;;;;4981555;28;20026;-91
2023/01/04 07:16:07;;;;;;;;;;;;;;;;;;;;;
2023/01/04 07:18:54;;;;;;;0.20;0.20;;;;;;;;;;4997007;28;20018;-93
2023/01/04 07:21:18;;;;;;;0.40;0.10;;;;;;;;;;4997524;28;20063;-90
2023/01/04 07:24:06;;;;;;;0.50;0.25;;;;;;;;;;4978928;28;20033;-93
2023/01/04 07:26:32;;;;;;;0.85;0.20;;;;;;;;;;4995349;28;20034;-92
2023/01/04 07:32:10;;;;;;;1.65;0.30;;;;;;;;;;4938623;29;20031;-94
2023/01/04 07:34:44;;;;;;;0.38;0.20;;;;;;;;;;4934941;29;20031;-90
2023/01/04 07:37:09;;;;;;;0.10;0.10;;;;;;;;;;4949384;28;20061;-89
2023/01/04 07:39:42;;;;;;;0.13;0.10;;;;;;;;;;4972548;28;20030;-90
2023/01/04 07:42:18;;;;;;;0.10;0.10;;;;;;;;;;4995842;28;20018;-93
2023/01/04 07:44:44;;;;;;;0.80;0.20;;;;;;;;;;4989161;28;20053;-90
2023/01/04 07:47:12;;;;;;;0.30;0.20;;;;;;;;;;4982220;28;20022;-89
2023/01/04 07:49:38;;;;;;;0.28;0.10;;;;;;;;;;4993193;28;20116;-91
2023/01/04 07:52:12;;;;;;;0.10;0.10;;;;;;;;;;4994886;28;20026;-91
2023/01/04 07:54:39;;;;;;;1.30;0.10;;;;;;;;;;4969325;28;20026;-93
2023/01/04 07:57:04;;;;;;;0.32;0.20;;;;;;;;;;4995947;28;20022;-87
2023/01/04 07:59:44;;;;;;;0.15;0.10;;;;;;;;;;4977444;28;20096;-93
2023/01/04 08:02:29;;;;;;;1.02;0.20;;;;;;;;;;4994513;28;20027;-90
2023/01/04 08:04:55;;;;;;;0.00;0.00;;;;;;;;;;4992977;28;20039;-90
2023/01/04 08:07:20;;;;;;;0.98;0.17;;;;;;;;;;4985638;28;20036;-92
2023/01/04 08:10:22;;;;;;;0.10;0.10;;;;;;;;;;4991651;28;20018;-90
2023/01/04 08:12:47;;;;;;;0.30;0.20;;;;;;;;;;4981123;28;20040;-89
2023/01/04 08:15:14;;;;;;;0.85;0.30;;;;;;;;;;5005402;28;20663;-92
2023/01/04 08:17:39;;;;;;;0.17;0.10;;;;;;;;;;4987824;28;20081;-90
2023/01/04 08:20:04;;;;;;;0.00;0.00;;;;;;;;;;4998226;28;20050;-88
2023/01/04 08:22:30;;;;;;;0.35;0.20;;;;;;;;;;4988365;28;20568;-89
2023/01/04 08:24:55;;;;;;;0.70;0.10;;;;;;;;;;4985350;28;20022;-88
2023/01/04 08:27:23;;;;;;;3.13;0.22;;;;;;;;;;4983000;28;20037;-91
2023/01/04 08:29:48;;;;;;;0.60;0.20;;;;;;;;;;4979044;28;20034;-90
2023/01/04 08:32:17;;;;;;;0.17;0.10;;;;;;;;;;5001786;28;20459;-91
2023/01/04 08:34:43;;;;;;;1.08;0.45;;;;;;;;;;4976050;28;20027;-90
2023/01/04 08:37:14;;;;;;;0.85;0.30;;;;;;;;;;4977675;28;20026;-90
2023/01/04 08:39:40;;;;;;;0.35;0.20;;;;;;;;;;4985960;28;20038;-93
2023/01/04 08:42:07;;;;;;;0.15;0.10;;;;;;;;;;4970377;28;20496;-91
2023/01/04 08:44:38;;;;;;;0.28;0.17;;;;;;;;;;4983633;28;20037;-91
2023/01/04 08:47:12;;;;;;;1.08;0.30;;;;;;;;;;4988168;28;20054;-93
2023/01/04 08:49:41;;;;;;;1.77;0.20;;;;;;;;;;4970651;28;20033;-91
2023/01/04 08:52:08;;;;;;;0.30;0.25;;;;;;;;;;4970047;28;20088;-90
2023/01/04 08:54:33;;;;;;;0.10;0.10;;;;;;;;;;4967087;28;20049;-90
2023/01/04 08:57:04;;;;;;;0.22;0.13;;;;;;;;;;4971066;28;20468;-91
2023/01/04 08:59:32;;;;;;;2.90;0.25;;;;;;;;;;4980883;28;20042;-91
2023/01/04 09:01:58;;;;;;;0.13;0.13;;;;;;;;;;4989211;28;20536;-90
2023/01/04 09:04:23;;;;;;;0.50;0.35;;;;;;;;;;4967532;28;20129;-91
2023/01/04 09:06:48;;;;;;;1.60;0.40;;;;;;;;;;4964829;28;20074;-90
2023/01/04 09:09:17;;;;;;;0.55;0.25;;;;;;;;;;4985882;28;20032;-91
2023/01/04 09:11:43;;;;;;;0.45;0.17;;;;;;;;;;4985852;28;20023;-90
2023/01/04 09:14:12;;;;;;;2.53;0.30;;;;;;;;;;4973938;28;20646;-90
2023/01/04 09:16:38;;;;;;;0.32;0.20;;;;;;;;;;4984110;28;20400;-89
2023/01/04 09:19:22;;;;;;;1.40;0.57;;;;;;;;;;4986506;28;20026;-91
2023/01/04 09:21:47;;;;;;;0.52;0.17;;;;;;;;;;4972635;28;20468;-90
2023/01/04 09:24:13;;;;;;;0.60;0.30;;;;;;;;;;4972000;28;20523;-90
2023/01/04 09:26:38;;;;;;;0.68;0.30;;;;;;;;;;4988839;28;20018;-89
2023/01/04 09:29:09;;;;;;;1.98;0.15;;;;;;;;;;4971390;28;20404;-90
2023/01/04 09:31:34;;;;;;;0.63;0.20;;;;;;;;;;4997224;28;20034;-91
2023/01/04 09:34:00;;;;;;;0.60;0.17;;;;;;;;;;4991124;28;20022;-92
2023/01/04 09:36:25;;;;;;;0.65;0.25;;;;;;;;;;4988892;28;20492;-91
2023/01/04 09:39:14;;;;;;;0.20;0.10;;;;;;;;;;4971118;28;20022;-94
2023/01/04 09:41:43;;;;;;;0.10;0.10;;;;;;;;;;4989978;28;20097;-91
2023/01/04 09:44:19;;;;;;;0.20;0.20;;;;;;;;;;4987812;28;20061;-93
2023/01/04 09:47:01;;;;;;;1.05;0.35;;;;;;;;;;4972184;28;20043;-90
2023/01/04 09:49:48;;;;;;;0.38;0.30;;;;;;;;;;4967581;28;20022;-92
2023/01/04 09:52:21;;;;;;;0.38;0.30;;;;;;;;;;4985194;28;20034;-90
2023/01/04 09:55:00;;;;;;;0.52;0.30;;;;;;;;;;4981435;28;20102;-90
2023/01/04 09:57:28;;;;;;;0.20;0.20;;;;;;;;;;4970792;28;20030;-91
2023/01/04 09:59:59;;;;;;;0.10;0.10;;;;;;;;;;4973131;28;20057;-90
2023/01/04 10:02:30;;;;;;;0.10;0.10;;;;;;;;;;4987789;28;20035;-92
2023/01/04 10:05:00;;;;;;;0.10;0.10;;;;;;;;;;4991301;28;20082;-90
2023/01/04 10:07:27;;;;;;;0.65;0.20;;;;;;;;;;4992192;28;20030;-92
2023/01/04 10:09:52;;;;;;;0.63;0.28;;;;;;;;;;4969300;28;20015;-91
2023/01/04 10:12:21;;;;;;;0.17;0.17;;;;;;;;;;4971984;28;20468;-92
2023/01/04 10:14:57;;;;;;;0.55;0.20;;;;;;;;;;4986994;28;20026;-92
2023/01/04 10:17:57;;;;;;;0.65;0.30;;;;;;;;;;4994091;28;20057;-91
2023/01/04 10:20:28;;;;;;;;;;;;;;;;;;4945931;28;20049;-92
2023/01/04 10:22:56;;;;;;;0.93;0.32;;;;;;;;;;4995701;28;19910;-91
2023/01/04 10:25:53;;;;;;;0.98;0.30;;;;;;;;;;4984879;28;20030;-92
2023/01/04 10:28:31;;;;;;;1.33;0.47;;;;;;;;;;4970626;28;20020;-92
2023/01/04 10:31:18;;;;;;;0.90;0.20;;;;;;;;;;4979791;28;20080;-92
2023/01/04 10:33:59;;;;;;;0.65;0.30;;;;;;;;;;4981303;28;20033;-93
2023/01/04 10:36:57;;;;;;;0.35;0.20;;;;;;;;;;4995376;28;20030;-90
2023/01/04 10:39:30;;;;;;;1.63;0.30;;;;;;;;;;4960267;28;20030;-93
2023/01/04 10:45:30;;;;;;;0.10;0.10;;;;;;;;;;4980217;28;20034;-93
2023/01/04 10:47:56;;;;;;;1.15;0.10;;;;;;;;;;4973615;28;20512;-91
2023/01/04 10:50:40;;;;;;;3.10;0.35;;;;;;;;;;4991048;28;20116;-93
2023/01/04 10:53:28;;;;;;;0.10;0.10;;;;;;;;;;4989878;28;20035;-92
2023/01/04 10:56:09;;;;;;;0.63;0.28;;;;;;;;;;4956911;28;20908;-91
2023/01/04 10:58:37;;;;;;;0.43;0.28;;;;;;;;;;4977505;28;20026;-91
2023/01/04 11:01:05;;;;;;;0.50;0.20;;;;;;;;;;4988812;28;20026;-91
2023/01/04 11:03:38;;;;;;;0.68;0.20;;;;;;;;;;4973079;28;20034;-92
2023/01/04 11:06:09;;;;;;;1.10;0.35;;;;;;;;;;4978421;28;20033;-90
2023/01/04 11:08:49;;;;;;;0.80;0.20;;;;;;;;;;4991390;28;20500;-90
2023/01/04 11:11:34;;;;;;;4.65;0.30;;;;;;;;;;4993936;28;20030;-91
2023/01/04 11:14:09;;;;;;;1.52;0.22;;;;;;;;;;4993625;28;20034;-93
2023/01/04 11:16:35;;;;;;;0.40;0.28;;;;;;;;;;4969187;28;20373;-89
2023/01/04 11:19:10;;;;;;;0.15;0.15;;;;;;;;;;4972555;28;20030;-89
2023/01/04 11:22:07;;;;;;;1.38;0.30;;;;;;;;;;4972514;28;20050;-93
2023/01/04 11:24:59;;;;;;;1.52;0.45;;;;;;;;;;4933878;28;20083;-93
2023/01/04 11:27:29;;;;;;;0.35;0.30;;;;;;;;;;4969025;28;20034;-91
2023/01/04 11:30:04;;;;;;;1.23;0.28;;;;;;;;;;4991507;28;20106;-91
2023/01/04 11:32:48;;;;;;;3.13;0.30;;;;;;;;;;4970929;28;20023;-90
2023/01/04 11:35:47;;;;;;;0.30;0.10;;;;;;;;;;4989486;28;20037;-91
2023/01/04 11:38:24;;;;;;;0.45;0.30;;;;;;;;;;4967908;28;20038;-91
2023/01/04 11:41:24;;;;;;;5.07;0.40;;;;;;;;;;4998982;28;20018;-92
2023/01/04 11:43:50;;;;;;;;;;;;;;;;;;4975260;28;20093;-91
2023/01/04 11:46:20;;;;;;;0.93;0.55;;;;;;;;;;4972799;28;19909;-92
2023/01/04 11:48:46;;;;;;;1.27;0.57;;;;;;;;;;4991046;28;20010;-90
2023/01/04 11:51:41;;;;;;;0.75;0.30;;;;;;;;;;4971556;28;20097;-90
2023/01/04 11:54:40;;;;;;;1.55;0.32;;;;;;;;;;4993395;28;20030;-90
2023/01/04 11:57:09;;;;;;;6.20;0.52;;;;;;;;;;4987804;28;20512;-92
2023/01/04 11:59:34;;;;;;;2.75;0.80;;;;;;;;;;4991033;28;20045;-91
2023/01/04 12:02:25;;;;;;;1.48;0.50;;;;;;;;;;4997401;28;20104;-90
2023/01/04 12:04:51;;;;;;;4.18;0.88;;;;;;;;;;5000533;23;20196;-70
2023/01/04 12:07:24;;;;;;;3.22;0.47;;;;;;;;;;5011162;28;20086;-70
2023/01/04 12:09:50;;;;;;;6.03;0.75;;;;;;;;;;5005599;28;20010;-69
2023/01/04 12:12:15;;;;;;;2.83;0.60;;;;;;;;;;5009116;28;20429;-70
2023/01/04 12:14:44;;;;;;;1.33;0.20;;;;;;;;;;5006688;28;20300;-70
2023/01/04 12:17:09;;;;;;;2.15;0.75;;;;;;;;;;5010363;28;20037;-71
2023/01/04 12:19:35;;;;;;;1.03;0.30;;;;;;;;;;5010161;28;20466;-69
2023/01/04 12:22:01;;;;;;;0.93;0.50;;;;;;;;;;5005314;28;20101;-71
2023/01/04 12:24:28;;;;;;;0.32;0.28;;;;;;;;;;5006253;28;20378;-69
2023/01/04 12:26:54;;;;;;;1.55;0.40;;;;;;;;;;5005381;28;20069;-71
2023/01/04 12:29:22;;;;;;;1.25;0.40;;;;;;;;;;5007850;28;20018;-69
2023/01/04 12:31:48;;;;;;;0.45;0.30;;;;;;;;;;5003382;28;20047;-68
2023/01/04 12:34:22;;;;;;;0.60;0.40;;;;;;;;;;5004300;28;20463;-70
2023/01/04 12:36:47;;;;;;;0.40;0.20;;;;;;;;;;5002840;28;20479;-69
2023/01/04 12:39:15;;;;;;;0.70;0.20;;;;;;;;;;5004794;28;20085;-70
2023/01/04 12:41:42;;;;;;;2.35;0.52;;;;;;;;;;5006320;28;20281;-70
2023/01/04 12:44:27;;;;;;;0.10;0.10;;;;;;;;;;5005543;28;20021;-70
2023/01/04 12:49:48;;;;;;;0.85;0.47;;;;;;;;;;4998286;28;20028;-70
2023/01/04 12:52:13;;;;;;;2.38;0.57;;;;;;;;;;5009180;28;20108;-71
2023/01/04 12:54:49;;;;;;;0.23;0.23;;;;;;;;;;5004479;28;20105;-70
2023/01/04 12:57:17;;;;;;;0.80;0.32;;;;;;;;;;5002914;28;20281;-70
2023/01/04 12:59:51;;;;;;;1.13;0.13;;;;;;;;;;5002170;28;20053;-70
2023/01/04 13:02:18;;;;;;;0.10;0.10;;;;;;;;;;5007913;28;20048;-69
2023/01/04 13:04:44;;;;;;;0.38;0.10;;;;;;;;;;5002693;28;20486;-70
2023/01/04 13:07:13;;;;;;;1.77;0.10;;;;;;;;;;5005993;28;20065;-70
2023/01/04 13:09:42;;;;;;;0.10;0.10;;;;;;;;;;5005137;28;20441;-70
2023/01/04 13:12:14;;;;;;;0.40;0.20;;;;;;;;;;5004417;28;20026;-71
2023/01/04 13:14:43;;;;;;;0.10;0.10;;;;;;;;;;5006190;28;20457;-70
2023/01/04 13:17:16;;;;;;;0.38;0.10;;;;;;;;;;5006639;28;20060;-70
2023/01/04 13:19:42;;;;;;;1.63;0.20;;;;;;;;;;5008540;28;20425;-70
2023/01/04 13:22:10;;;;;;;0.65;0.20;;;;;;;;;;5004460;28;20128;-71
2023/01/04 13:24:35;;;;;;;0.30;0.10;;;;;;;;;;5004729;28;20053;-70
2023/01/04 13:27:08;;;;;;;0.10;0.10;;;;;;;;;;4999523;28;20041;-70
2023/01/04 13:29:34;;;;;;;0.45;0.10;;;;;;;;;;5006698;28;20021;-70
2023/01/04 13:32:00;;;;;;;0.35;0.10;;;;;;;;;;5006419;28;20532;-69
2023/01/04 13:34:32;;;;;;;0.32;0.20;;;;;;;;;;5003470;28;20381;-70
2023/01/04 13:37:09;;;;;;;0.15;0.13;;;;;;;;;;5004917;28;20030;-69
2023/01/04 13:39:34;;;;;;;0.70;0.22;;;;;;;;;;5006233;28;20044;-71
2023/01/04 13:42:00;;;;;;;0.10;0.10;;;;;;;;;;5008118;28;20025;-70
2023/01/04 13:44:25;;;;;;;0.40;0.10;;;;;;;;;;5003942;28;20429;-69
2023/01/04 13:46:51;;;;;;;0.95;0.20;;;;;;;;;;5004821;28;20104;-69
2023/01/04 13:49:16;;;;;;;1.35;0.10;;;;;;;;;;5006964;28;20065;-70
2023/01/04 13:51:42;;;;;;;0.10;0.10;;;;;;;;;;5004222;28;20054;-68
2023/01/04 13:54:17;;;;;;;1.27;0.20;;;;;;;;;;5006774;28;20465;-70
2023/01/04 13:56:42;;;;;;;1.08;0.20;;;;;;;;;;5003275;28;20284;-70
2023/01/04 13:59:08;;;;;;;0.87;0.20;;;;;;;;;;5006404;28;20036;-70
2023/01/04 14:01:37;;;;;;;0.13;0.00;;;;;;;;;;5005777;28;20304;-70
2023/01/04 14:04:21;;;;;;;0.52;0.20;;;;;;;;;;5006924;28;20466;-70
2023/01/04 14:06:47;;;;;;;1.13;0.10;;;;;;;;;;5003597;28;20034;-70
2023/01/04 14:09:14;;;;;;;0.50;0.17;;;;;;;;;;5004343;28;20028;-69
2023/01/04 14:11:58;;;;;;;0.20;0.10;;;;;;;;;;5005422;28;20368;-70
2023/01/04 14:14:29;;;;;;;0.45;0.10;;;;;;;;;;5003909;28;20506;-69
2023/01/04 14:17:15;;;;;;;0.50;0.20;;;;;;;;;;5002454;28;20021;-70
2023/01/04 14:19:44;;;;;;;0.20;0.20;;;;;;;;;;5004930;28;20490;-70
2023/01/04 14:22:22;;;;;;;0.93;0.20;;;;;;;;;;4988287;28;20091;-69
2023/01/04 14:24:51;;;;;;;0.00;0.00;;;;;;;;;;5003654;28;20037;-68
2023/01/04 14:27:31;;;;;;;0.35;0.10;;;;;;;;;;5003206;28;20101;-69
2023/01/04 14:29:56;;;;;;;;;;;;;;;;;;5001100;28;20022;-69
2023/01/04 14:32:21;;;;;;;0.52;0.17;;;;;;;;;;5002516;28;19917;-69
2023/01/04 14:34:46;;;;;;;1.00;0.40;;;;;;;;;;5005933;28;20451;-70
2023/01/04 14:37:12;;;;;;;2.97;0.20;;;;;;;;;;5005073;28;20029;-69
2023/01/04 14:39:37;;;;;;;0.55;0.13;;;;;;;;;;5005115;28;20394;-70
2023/01/04 14:42:03;;;;;;;0.55;0.10;;;;;;;;;;5005794;28;20029;-69
2023/01/04 14:44:30;;;;;;;0.47;0.20;;;;;;;;;;5007164;28;20409;-69
2023/01/04 14:46:59;;;;;;;0.63;0.25;;;;;;;;;;5002196;28;20109;-70
2023/01/04 14:49:27;;;;;;;0.03;0.03;;;;;;;;;;5003445;28;20378;-69
2023/01/04 14:51:59;;;;;;;0.10;0.10;;;;;;;;;;5004818;28;20026;-70
2023/01/04 14:54:26;;;;;;;0.50;0.30;;;;;;;;;;5002025;28;20038;-70
2023/01/04 14:56:52;;;;;;;1.05;0.30;;;;;;;;;;4999946;28;20409;-69
2023/01/04 14:59:17;;;;;;;0.45;0.20;;;;;;;;;;5007055;28;20029;-70
2023/01/04 15:01:42;;;;;;;0.88;0.20;;;;;;;;;;5007454;28;20026;-70
2023/01/04 15:04:08;;;;;;;0.30;0.10;;;;;;;;;;5009280;28;20037;-69
2023/01/04 15:06:33;;;;;;;0.32;0.20;;;;;;;;;;5008976;28;20022;-67
2023/01/04 15:08:59;;;;;;;0.30;0.10;;;;;;;;;;5012276;28;20591;-69
2023/01/04 15:11:24;;;;;;;1.65;0.50;;;;;;;;;;5006304;28;20045;-70
2023/01/04 15:13:49;;;;;;;0.70;0.03;;;;;;;;;;5010078;28;20018;-69
2023/01/04 15:16:16;;;;;;;0.63;0.28;;;;;;;;;;5005821;28;20049;-69
2023/01/04 15:18:42;;;;;;;0.77;0.10;;;;;;;;;;5005673;28;20030;-69
2023/01/04 15:21:08;;;;;;;0.70;0.30;;;;;;;;;;5009525;28;20026;-68
2023/01/04 15:23:33;;;;;;;0.28;0.28;;;;;;;;;;4987139;28;20046;-67
2023/01/04 15:26:00;;;;;;;0.20;0.20;;;;;;;;;;5010411;28;20034;-70
2023/01/04 15:28:26;;;;;;;0.52;0.10;;;;;;;;;;5006452;28;20024;-68
2023/01/04 15:30:51;;;;;;;0.88;0.20;;;;;;;;;;5009545;28;20022;-70
2023/01/04 15:33:16;;;;;;;0.30;0.20;;;;;;;;;;5007769;28;20030;-69
2023/01/04 15:35:41;;;;;;;0.23;0.20;;;;;;;;;;5008730;28;20372;-69
2023/01/04 15:38:07;;;;;;;1.80;0.43;;;;;;;;;;5006939;28;20745;-69
2023/01/04 15:40:34;;;;;;;0.93;0.20;;;;;;;;;;5009620;28;20285;-69
2023/01/04 15:42:59;;;;;;;0.82;0.28;;;;;;;;;;5011114;28;20029;-66
2023/01/04 15:45:25;;;;;;;2.95;0.25;;;;;;;;;;5006953;28;20030;-69
2023/01/04 15:47:50;;;;;;;0.52;0.13;;;;;;;;;;5008300;28;20014;-68
2023/01/04 15:50:16;;;;;;;1.02;0.30;;;;;;;;;;5009627;28;20051;-69
2023/01/04 15:52:41;;;;;;;0.10;0.10;;;;;;;;;;5009691;28;20057;-69
2023/01/04 15:55:06;;;;;;;0.52;0.25;;;;;;;;;;5008305;28;20022;-68
2023/01/04 15:57:32;;;;;;;0.70;0.22;;;;;;;;;;5006336;28;20033;-69